Time;durP1;ratioP1;P1;durP2;ratioP2;P2;SDS_P1;SDS_P2;PMS_P1;PMS_P2;Temp;Humidity;BMP_temperature;BMP_pressure;BME280_temperature;BME280_humidity;BME280_pressure;Samples;Min_cycle;Max_cycle;Signal;HPM_P1;HPM_P2
2021/07/28 00:01:51;;;;;;;9.10;4.80;;;;;;;;;;5068887;28;20104;-77
2021/07/28 00:04:18;;;;;;;7.10;4.97;;;;;;;;;;5035251;28;20045;-77
2021/07/28 00:06:44;;;;;;;6.15;4.85;;;;;;;;;;5035127;28;20044;-77
2021/07/28 00:09:09;;;;;;;5.55;4.93;;;;;;;;;;5054975;28;20444;-77
2021/07/28 00:11:37;;;;;;;5.30;4.80;;;;;;;;;;5054968;28;20489;-77
2021/07/28 00:14:04;;;;;;;9.90;4.70;;;;;;;;;;5055036;28;20621;-77
2021/07/28 00:16:32;;;;;;;8.77;4.47;;;;;;;;;;5038981;28;20025;-77
2021/07/28 00:19:17;;;;;;;5.55;4.68;;;;;;;;;;5034816;28;20352;-77
2021/07/28 00:24:31;;;;;;;8.57;4.85;;;;;;;;;;5034661;28;20036;-77
2021/07/28 00:26:57;;;;;;;7.35;4.85;;;;;;;;;;5035098;28;20025;-77
2021/07/28 00:29:22;;;;;;;7.05;4.75;;;;;;;;;;5034157;28;20017;-77
2021/07/28 00:31:50;;;;;;;8.25;5.00;;;;;;;;;;5034553;28;20394;-77
2021/07/28 00:34:16;;;;;;;8.07;4.78;;;;;;;;;;5047008;28;20053;-78
2021/07/28 00:36:41;;;;;;;5.97;5.30;;;;;;;;;;5054260;28;20656;-77
2021/07/28 00:39:08;;;;;;;6.83;5.20;;;;;;;;;;5042886;28;20719;-77
2021/07/28 00:41:33;;;;;;;7.28;5.22;;;;;;;;;;5044272;28;20288;-77
2021/07/28 00:43:59;;;;;;;7.30;5.27;;;;;;;;;;5054032;28;20029;-77
2021/07/28 00:46:26;;;;;;;8.80;5.30;;;;;;;;;;5053229;28;20275;-77
2021/07/28 00:48:52;;;;;;;8.70;5.25;;;;;;;;;;5054193;28;20322;-77
2021/07/28 00:51:17;;;;;;;6.90;5.05;;;;;;;;;;5054099;28;20079;-77
2021/07/28 00:53:42;;;;;;;8.48;5.45;;;;;;;;;;5054322;28;20021;-77
2021/07/28 00:56:09;;;;;;;7.72;5.35;;;;;;;;;;5040464;28;20029;-77
2021/07/28 00:58:34;;;;;;;8.75;5.10;;;;;;;;;;5048003;28;20110;-77
2021/07/28 01:00:59;;;;;;;7.00;5.70;;;;;;;;;;5053907;28;20071;-77
2021/07/28 01:03:25;;;;;;;7.10;5.77;;;;;;;;;;5048672;28;20036;-77
2021/07/28 01:05:50;;;;;;;8.65;5.78;;;;;;;;;;5035923;28;20270;-77
2021/07/28 01:08:15;;;;;;;7.63;5.47;;;;;;;;;;5026445;28;20022;-76
2021/07/28 01:10:40;;;;;;;7.80;5.47;;;;;;;;;;5033991;28;20487;-76
2021/07/28 01:13:07;;;;;;;11.17;6.00;;;;;;;;;;5047493;28;20020;-76
2021/07/28 01:15:34;;;;;;;11.48;5.78;;;;;;;;;;5073294;28;20284;-76
2021/07/28 01:18:03;;;;;;;9.10;6.30;;;;;;;;;;5072812;28;20461;-77
2021/07/28 01:20:39;;;;;;;7.68;5.95;;;;;;;;;;5073577;28;20471;-77
2021/07/28 01:23:05;;;;;;;8.85;6.35;;;;;;;;;;5068306;28;20343;-76
2021/07/28 01:25:36;;;;;;;9.48;5.50;;;;;;;;;;5053148;28;20028;-76
2021/07/28 01:28:02;;;;;;;9.32;6.20;;;;;;;;;;5033624;28;20049;-76
2021/07/28 01:30:30;;;;;;;8.05;6.30;;;;;;;;;;5033390;28;20025;-76
2021/07/28 01:32:56;;;;;;;7.72;6.43;;;;;;;;;;5038959;28;20021;-77
2021/07/28 01:35:22;;;;;;;12.13;6.45;;;;;;;;;;5033213;28;20029;-77
2021/07/28 01:37:47;;;;;;;11.25;6.60;;;;;;;;;;5038354;28;20070;-77
2021/07/28 01:40:13;;;;;;;9.30;6.77;;;;;;;;;;5052933;28;20383;-77
2021/07/28 01:42:45;;;;;;;8.88;6.38;;;;;;;;;;5031278;28;20711;-77
2021/07/28 01:45:11;;;;;;;6.97;6.32;;;;;;;;;;5032815;28;20017;-77
2021/07/28 01:47:40;;;;;;;7.50;6.70;;;;;;;;;;5033175;28;20432;-77
2021/07/28 01:50:09;;;;;;;11.85;6.57;;;;;;;;;;5032725;28;20078;-77
2021/07/28 01:52:37;;;;;;;14.90;6.90;;;;;;;;;;5032911;28;20384;-77
2021/07/28 01:55:03;;;;;;;7.68;6.47;;;;;;;;;;5058606;28;20024;-77
2021/07/28 01:57:28;;;;;;;12.07;6.90;;;;;;;;;;5072951;28;20362;-77
2021/07/28 01:59:54;;;;;;;8.50;7.00;;;;;;;;;;5061600;28;20087;-76
2021/07/28 02:02:19;;;;;;;8.57;6.55;;;;;;;;;;5046163;28;20272;-77
2021/07/28 02:04:44;;;;;;;8.20;7.20;;;;;;;;;;5032962;28;20096;-77
2021/07/28 02:07:09;;;;;;;9.80;6.90;;;;;;;;;;5040832;28;20277;-77
2021/07/28 02:09:34;;;;;;;9.97;7.17;;;;;;;;;;5055765;28;20304;-77
2021/07/28 02:12:00;;;;;;;10.32;7.20;;;;;;;;;;5046165;28;21002;-77
2021/07/28 02:14:25;;;;;;;7.78;6.90;;;;;;;;;;5053032;28;20350;-77
2021/07/28 02:16:50;;;;;;;9.25;6.82;;;;;;;;;;5053070;28;20020;-77
2021/07/28 02:19:15;;;;;;;8.30;7.40;;;;;;;;;;5053166;28;20355;-77
2021/07/28 02:21:41;;;;;;;10.93;7.33;;;;;;;;;;5031481;28;20263;-77
2021/07/28 02:24:06;;;;;;;11.13;7.23;;;;;;;;;;5032992;28;20264;-76
2021/07/28 02:26:36;;;;;;;8.90;6.87;;;;;;;;;;5032844;28;20271;-77
2021/07/28 02:29:01;;;;;;;9.73;7.25;;;;;;;;;;5033220;28;20256;-77
2021/07/28 02:31:26;;;;;;;8.80;7.70;;;;;;;;;;5047815;28;20017;-77
2021/07/28 02:33:51;;;;;;;10.07;7.57;;;;;;;;;;5053081;28;20251;-77
2021/07/28 02:36:17;;;;;;;12.53;7.40;;;;;;;;;;5046067;28;20452;-76
2021/07/28 02:38:42;;;;;;;11.32;7.60;;;;;;;;;;5032830;28;20733;-77
2021/07/28 02:41:09;;;;;;;9.07;6.93;;;;;;;;;;5041121;28;20451;-77
2021/07/28 02:43:37;;;;;;;12.20;6.95;;;;;;;;;;5072272;28;20306;-77
2021/07/28 02:46:02;;;;;;;12.65;7.88;;;;;;;;;;5072563;28;20366;-77
2021/07/28 02:48:30;;;;;;;10.13;7.30;;;;;;;;;;5072910;28;20035;-77
2021/07/28 02:50:55;;;;;;;12.18;7.60;;;;;;;;;;5059146;28;20272;-76
2021/07/28 02:53:22;;;;;;;10.50;7.00;;;;;;;;;;5035296;28;20030;-77
2021/07/28 02:55:47;;;;;;;9.13;6.90;;;;;;;;;;5036105;28;20079;-77
2021/07/28 02:58:12;;;;;;;12.75;7.47;;;;;;;;;;5018691;28;20025;-77
2021/07/28 03:00:38;;;;;;;9.60;6.60;;;;;;;;;;5038603;28;20021;-76
2021/07/28 03:03:04;;;;;;;9.65;6.85;;;;;;;;;;5056476;28;20247;-77
2021/07/28 03:05:31;;;;;;;9.15;7.20;;;;;;;;;;5055997;28;20043;-76
2021/07/28 03:07:58;;;;;;;10.18;6.97;;;;;;;;;;5056076;28;20044;-76
2021/07/28 03:10:24;;;;;;;9.73;7.45;;;;;;;;;;5055893;28;20486;-77
2021/07/28 03:12:49;;;;;;;9.02;7.07;;;;;;;;;;5036823;28;20053;-77
2021/07/28 03:15:14;;;;;;;13.63;7.13;;;;;;;;;;5036253;28;20021;-77
2021/07/28 03:17:39;;;;;;;12.52;7.65;;;;;;;;;;5036548;28;20021;-77
2021/07/28 03:20:05;;;;;;;12.37;6.93;;;;;;;;;;5048784;28;20448;-77
2021/07/28 03:22:30;;;;;;;12.77;7.28;;;;;;;;;;5055809;28;20274;-77
2021/07/28 03:24:58;;;;;;;9.75;7.22;;;;;;;;;;5037286;28;20406;-77
2021/07/28 03:27:23;;;;;;;10.32;7.47;;;;;;;;;;5041093;28;20458;-77
2021/07/28 03:29:48;;;;;;;11.65;7.50;;;;;;;;;;5045812;28;20025;-77
2021/07/28 03:32:13;;;;;;;10.23;7.07;;;;;;;;;;5033759;28;20363;-77
2021/07/28 03:34:39;;;;;;;12.80;7.53;;;;;;;;;;5038113;28;20785;-77
2021/07/28 03:37:04;;;;;;;11.83;7.57;;;;;;;;;;5055642;28;20280;-77
2021/07/28 03:39:30;;;;;;;11.38;6.82;;;;;;;;;;5055279;28;20377;-77
2021/07/28 03:41:55;;;;;;;12.60;7.57;;;;;;;;;;5052862;28;20112;-77
2021/07/28 03:44:20;;;;;;;14.87;8.27;;;;;;;;;;5054611;28;20418;-77
2021/07/28 03:46:45;;;;;;;13.77;8.03;;;;;;;;;;5055122;28;20270;-77
2021/07/28 03:49:13;;;;;;;11.07;8.07;;;;;;;;;;5037749;28;20271;-77
2021/07/28 03:51:38;;;;;;;12.35;8.30;;;;;;;;;;5054194;28;20127;-78
2021/07/28 03:54:03;;;;;;;14.77;7.90;;;;;;;;;;5052406;28;20524;-79
2021/07/28 03:56:29;;;;;;;13.10;8.33;;;;;;;;;;5054340;28;20780;-80
2021/07/28 03:58:57;;;;;;;12.07;7.90;;;;;;;;;;5054737;28;20346;-79
2021/07/28 04:01:22;;;;;;;9.95;7.72;;;;;;;;;;5054047;28;20459;-80
2021/07/28 04:03:47;;;;;;;9.80;8.10;;;;;;;;;;5043295;28;20045;-80
2021/07/28 04:06:13;;;;;;;19.17;7.30;;;;;;;;;;5017477;28;20105;-79
2021/07/28 04:08:38;;;;;;;13.75;8.13;;;;;;;;;;5041887;28;20091;-79
2021/07/28 04:11:03;;;;;;;9.43;7.83;;;;;;;;;;5038057;28;20447;-77
2021/07/28 04:13:28;;;;;;;8.30;7.13;;;;;;;;;;5054414;28;20286;-80
2021/07/28 04:15:53;;;;;;;11.48;7.55;;;;;;;;;;5054789;28;20263;-84
2021/07/28 04:18:19;;;;;;;13.30;8.18;;;;;;;;;;5054558;28;20013;-82
2021/07/28 04:20:46;;;;;;;12.17;7.57;;;;;;;;;;5054696;28;20414;-79
2021/07/28 04:23:12;;;;;;;14.52;8.32;;;;;;;;;;5036311;28;20281;-77
2021/07/28 04:25:37;;;;;;;10.13;8.07;;;;;;;;;;5027816;28;20100;-78
2021/07/28 04:28:04;;;;;;;10.65;8.20;;;;;;;;;;5020535;28;20451;-79
2021/07/28 04:30:30;;;;;;;10.55;7.22;;;;;;;;;;5028224;28;20029;-84
2021/07/28 04:32:55;;;;;;;10.27;7.03;;;;;;;;;;5051338;28;20018;-79
2021/07/28 04:35:20;;;;;;;13.63;7.50;;;;;;;;;;5033117;28;20354;-80
2021/07/28 04:37:45;;;;;;;11.93;7.23;;;;;;;;;;5026098;28;20720;-79
2021/07/28 04:40:12;;;;;;;7.85;7.05;;;;;;;;;;5024923;28;20771;-79
2021/07/28 04:42:37;;;;;;;9.80;6.93;;;;;;;;;;5021252;28;20040;-79
2021/07/28 04:45:04;;;;;;;8.85;6.93;;;;;;;;;;5035530;28;20014;-79
2021/07/28 04:47:35;;;;;;;7.75;6.68;;;;;;;;;;5017683;28;20475;-81
2021/07/28 04:50:00;;;;;;;8.65;6.63;;;;;;;;;;5034522;28;20107;-82
2021/07/28 04:52:26;;;;;;;9.98;7.30;;;;;;;;;;5033841;28;20140;-79
2021/07/28 04:54:54;;;;;;;7.97;6.80;;;;;;;;;;5027603;28;20025;-79
2021/07/28 04:57:19;;;;;;;8.35;6.85;;;;;;;;;;5024551;28;20033;-80
2021/07/28 05:00:05;;;;;;;8.07;6.80;;;;;;;;;;5020221;28;20096;-77
2021/07/28 05:02:31;;;;;;;9.27;6.70;;;;;;;;;;5044326;28;20047;-75
2021/07/28 05:04:56;;;;;;;13.63;6.40;;;;;;;;;;5043626;28;20025;-79
2021/07/28 05:07:21;;;;;;;11.68;6.50;;;;;;;;;;5029463;28;20578;-79
2021/07/28 05:09:46;;;;;;;9.00;6.00;;;;;;;;;;5039107;28;20361;-79
2021/07/28 05:12:12;;;;;;;10.13;6.47;;;;;;;;;;5032345;28;20264;-79
2021/07/28 05:14:37;;;;;;;9.65;6.65;;;;;;;;;;5049952;28;20013;-79
2021/07/28 05:17:06;;;;;;;11.13;6.93;;;;;;;;;;5027850;28;20108;-78
2021/07/28 05:19:31;;;;;;;10.45;6.38;;;;;;;;;;5032499;28;20321;-80
2021/07/28 05:21:56;;;;;;;10.93;6.43;;;;;;;;;;5031029;28;20449;-80
2021/07/28 05:24:21;;;;;;;12.87;6.60;;;;;;;;;;5030675;28;20979;-81
2021/07/28 05:26:46;;;;;;;9.38;6.57;;;;;;;;;;5026959;28;20283;-81
2021/07/28 05:29:14;;;;;;;9.52;6.28;;;;;;;;;;5033985;28;20386;-81
2021/07/28 05:31:42;;;;;;;8.55;6.15;;;;;;;;;;5025756;28;20022;-78
2021/07/28 05:34:07;;;;;;;9.68;6.53;;;;;;;;;;5033626;28;20021;-81
2021/07/28 05:36:32;;;;;;;9.02;6.07;;;;;;;;;;5052377;28;20028;-80
2021/07/28 05:38:57;;;;;;;7.07;6.27;;;;;;;;;;5052206;28;20013;-80
2021/07/28 05:41:23;;;;;;;9.20;5.88;;;;;;;;;;5035339;28;20244;-82
2021/07/28 05:43:51;;;;;;;10.45;7.13;;;;;;;;;;5033857;28;20040;-81
2021/07/28 05:46:21;;;;;;;11.65;6.18;;;;;;;;;;5052467;28;20090;-81
2021/07/28 05:48:47;;;;;;;9.25;6.28;;;;;;;;;;5052194;28;20463;-81
2021/07/28 05:51:14;;;;;;;10.13;6.70;;;;;;;;;;5052827;28;20091;-80
2021/07/28 05:53:40;;;;;;;10.48;6.45;;;;;;;;;;5052490;28;20318;-82
2021/07/28 05:56:05;;;;;;;6.95;5.97;;;;;;;;;;5035649;28;20384;-81
2021/07/28 05:58:33;;;;;;;7.82;5.95;;;;;;;;;;5038995;28;20025;-81
2021/07/28 06:01:04;;;;;;;9.27;5.93;;;;;;;;;;5033398;28;20490;-79
2021/07/28 06:03:30;;;;;;;10.05;5.97;;;;;;;;;;5038373;28;20022;-82
2021/07/28 06:05:59;;;;;;;7.25;6.20;;;;;;;;;;5024561;28;20025;-75
2021/07/28 06:08:24;;;;;;;10.95;6.68;;;;;;;;;;5039618;28;20497;-75
2021/07/28 06:10:49;;;;;;;9.00;6.70;;;;;;;;;;5047021;28;20032;-75
2021/07/28 06:13:14;;;;;;;13.07;6.22;;;;;;;;;;5026168;28;20059;-75
2021/07/28 06:15:40;;;;;;;9.60;6.30;;;;;;;;;;5038343;28;20017;-75
2021/07/28 06:18:05;;;;;;;6.80;6.10;;;;;;;;;;5046634;28;20049;-74
2021/07/28 06:20:30;;;;;;;8.70;6.20;;;;;;;;;;5045117;28;20394;-74
2021/07/28 06:22:56;;;;;;;10.37;6.50;;;;;;;;;;5042862;28;20262;-74
2021/07/28 06:25:21;;;;;;;11.13;6.47;;;;;;;;;;5046648;28;20271;-74
2021/07/28 06:27:49;;;;;;;8.88;5.97;;;;;;;;;;5030138;28;20009;-74
2021/07/28 06:30:14;;;;;;;9.13;6.55;;;;;;;;;;5049542;28;20048;-74
2021/07/28 06:32:42;;;;;;;8.65;6.40;;;;;;;;;;5031331;28;20029;-73
2021/07/28 06:35:08;;;;;;;10.77;6.57;;;;;;;;;;5036446;28;20108;-73
2021/07/28 06:37:52;;;;;;;7.70;6.05;;;;;;;;;;5036007;28;20112;-74
2021/07/28 06:40:51;;;;;;;7.07;6.32;;;;;;;;;;5043039;28;20014;-75
2021/07/28 06:43:19;;;;;;;9.63;6.30;;;;;;;;;;5045400;28;20020;-74
2021/07/28 06:45:44;;;;;;;9.57;6.22;;;;;;;;;;5061893;28;20174;-73
2021/07/28 06:48:12;;;;;;;9.70;6.50;;;;;;;;;;5027554;28;20100;-75
2021/07/28 06:50:37;;;;;;;8.65;6.10;;;;;;;;;;5023102;28;20025;-75
2021/07/28 06:53:03;;;;;;;9.07;6.75;;;;;;;;;;5034605;28;20179;-75
2021/07/28 06:55:28;;;;;;;12.60;6.90;;;;;;;;;;5027843;28;20155;-75
2021/07/28 06:57:56;;;;;;;9.48;6.60;;;;;;;;;;5044914;28;20029;-75
2021/07/28 07:00:21;;;;;;;9.73;6.70;;;;;;;;;;5050426;28;20017;-75
2021/07/28 07:02:46;;;;;;;12.60;6.78;;;;;;;;;;5032710;28;20313;-75
2021/07/28 07:05:11;;;;;;;11.60;7.10;;;;;;;;;;5049560;28;20013;-75
2021/07/28 07:07:37;;;;;;;8.73;6.40;;;;;;;;;;5036895;28;20282;-75
2021/07/28 07:10:08;;;;;;;11.93;6.45;;;;;;;;;;5036487;28;20021;-75
2021/07/28 07:12:33;;;;;;;11.68;6.05;;;;;;;;;;5034112;28;20021;-76
2021/07/28 07:14:59;;;;;;;12.45;6.20;;;;;;;;;;5031475;28;20032;-75
2021/07/28 07:17:24;;;;;;;9.63;5.85;;;;;;;;;;5051586;28;20053;-76
2021/07/28 07:19:49;;;;;;;12.80;9.05;;;;;;;;;;5035995;28;20039;-76
2021/07/28 07:22:15;;;;;;;14.88;9.48;;;;;;;;;;5027652;28;20029;-76
2021/07/28 07:24:43;;;;;;;9.73;6.28;;;;;;;;;;5024998;28;20075;-76
2021/07/28 07:27:08;;;;;;;11.13;6.03;;;;;;;;;;5051084;28;20082;-75
2021/07/28 07:29:39;;;;;;;8.02;5.65;;;;;;;;;;5036489;28;20032;-76
2021/07/28 07:32:04;;;;;;;7.80;5.47;;;;;;;;;;5052728;28;20022;-75
2021/07/28 07:34:32;;;;;;;8.52;5.60;;;;;;;;;;5036159;28;20079;-76
2021/07/28 07:36:57;;;;;;;6.90;5.20;;;;;;;;;;5035631;28;20052;-75
2021/07/28 07:39:23;;;;;;;10.18;5.70;;;;;;;;;;5049595;28;20156;-76
2021/07/28 07:41:48;;;;;;;8.07;5.50;;;;;;;;;;5036098;28;20033;-76
2021/07/28 07:44:13;;;;;;;8.60;5.68;;;;;;;;;;5053394;28;20032;-76
2021/07/28 07:46:38;;;;;;;12.83;9.93;;;;;;;;;;5052124;28;20013;-75
2021/07/28 07:49:03;;;;;;;7.72;5.57;;;;;;;;;;5033044;28;20262;-76
2021/07/28 07:51:30;;;;;;;6.33;5.40;;;;;;;;;;5035421;28;20067;-75
2021/07/28 07:53:56;;;;;;;8.98;5.40;;;;;;;;;;5053207;28;20258;-76
2021/07/28 07:56:21;;;;;;;8.60;5.55;;;;;;;;;;5052705;28;20028;-75
2021/07/28 07:58:47;;;;;;;8.13;5.68;;;;;;;;;;5053571;28;20013;-75
2021/07/28 08:01:14;;;;;;;10.57;6.90;;;;;;;;;;5053680;28;20071;-75
2021/07/28 08:03:40;;;;;;;10.45;6.10;;;;;;;;;;5051220;28;20503;-75
2021/07/28 08:06:06;;;;;;;9.75;6.20;;;;;;;;;;5032767;28;20107;-75
2021/07/28 08:08:32;;;;;;;5.85;5.25;;;;;;;;;;5027366;28;20029;-75
2021/07/28 08:10:59;;;;;;;7.78;5.15;;;;;;;;;;5031329;28;20024;-75
2021/07/28 08:13:24;;;;;;;5.57;5.00;;;;;;;;;;5030033;28;20017;-76
2021/07/28 08:15:52;;;;;;;10.55;5.28;;;;;;;;;;5059973;28;20051;-75
2021/07/28 08:18:19;;;;;;;6.80;4.90;;;;;;;;;;5051633;28;20112;-75
2021/07/28 08:20:44;;;;;;;9.15;4.80;;;;;;;;;;5024164;28;20028;-75
2021/07/28 08:23:09;;;;;;;7.18;5.45;;;;;;;;;;5053717;28;20020;-75
2021/07/28 08:25:35;;;;;;;6.57;5.10;;;;;;;;;;5052381;28;20139;-75
2021/07/28 08:28:00;;;;;;;7.50;4.40;;;;;;;;;;5053585;28;20764;-75
2021/07/28 08:30:26;;;;;;;6.50;4.60;;;;;;;;;;5039700;28;20101;-75
2021/07/28 08:32:51;;;;;;;6.13;4.70;;;;;;;;;;5034480;28;20514;-75
2021/07/28 08:35:16;;;;;;;5.40;4.70;;;;;;;;;;5046450;28;20406;-76
2021/07/28 08:37:42;;;;;;;5.90;5.17;;;;;;;;;;5054171;28;20706;-75
2021/07/28 08:40:17;;;;;;;8.95;4.68;;;;;;;;;;5054206;28;21074;-75
2021/07/28 08:42:48;;;;;;;6.30;4.77;;;;;;;;;;5053972;28;20043;-75
2021/07/28 08:45:14;;;;;;;5.45;4.60;;;;;;;;;;5054185;28;20391;-75
2021/07/28 08:47:40;;;;;;;7.38;4.50;;;;;;;;;;5054653;28;20104;-75
2021/07/28 08:50:06;;;;;;;11.15;4.88;;;;;;;;;;5054332;28;20431;-77
2021/07/28 08:52:35;;;;;;;5.55;4.90;;;;;;;;;;5052923;28;20348;-75
2021/07/28 08:55:00;;;;;;;8.90;4.50;;;;;;;;;;5053465;28;20024;-75
2021/07/28 08:57:27;;;;;;;7.45;4.53;;;;;;;;;;5052336;28;20373;-75
2021/07/28 08:59:55;;;;;;;8.48;4.10;;;;;;;;;;5053894;28;20040;-76
2021/07/28 09:02:20;;;;;;;8.05;4.93;;;;;;;;;;5053636;28;20020;-75
2021/07/28 09:04:45;;;;;;;6.65;4.43;;;;;;;;;;5054359;28;20019;-74
2021/07/28 09:07:14;;;;;;;6.33;4.03;;;;;;;;;;5054203;28;20120;-74
2021/07/28 09:09:53;;;;;;;9.05;4.40;;;;;;;;;;5037604;28;20295;-75
2021/07/28 09:12:19;;;;;;;4.82;4.00;;;;;;;;;;5040705;28;20035;-76
2021/07/28 09:14:52;;;;;;;6.40;4.55;;;;;;;;;;5053850;28;20032;-75
2021/07/28 09:17:19;;;;;;;5.40;4.20;;;;;;;;;;5053901;28;20098;-75
2021/07/28 09:19:46;;;;;;;4.18;3.80;;;;;;;;;;5054124;28;20024;-74
2021/07/28 09:22:12;;;;;;;6.00;3.80;;;;;;;;;;5053130;28;20590;-75
2021/07/28 09:24:41;;;;;;;6.78;3.30;;;;;;;;;;5053676;28;20036;-74
2021/07/28 09:27:06;;;;;;;4.63;3.28;;;;;;;;;;5051121;28;20017;-75
2021/07/28 09:29:33;;;;;;;4.50;2.50;;;;;;;;;;5053436;28;20033;-75
2021/07/28 09:32:02;;;;;;;5.47;2.30;;;;;;;;;;5035439;28;20025;-75
2021/07/28 09:34:28;;;;;;;4.10;2.10;;;;;;;;;;5035289;28;20024;-74
2021/07/28 09:36:54;;;;;;;3.40;1.90;;;;;;;;;;5053090;28;20574;-75
2021/07/28 09:39:30;;;;;;;3.67;1.80;;;;;;;;;;5035336;28;20076;-74
2021/07/28 09:42:01;;;;;;;2.63;2.03;;;;;;;;;;5053369;28;20021;-75
2021/07/28 09:44:27;;;;;;;5.15;1.90;;;;;;;;;;5053302;28;20104;-74
2021/07/28 09:47:01;;;;;;;2.45;1.70;;;;;;;;;;5035118;28;20103;-75
2021/07/28 09:49:26;;;;;;;2.28;1.80;;;;;;;;;;5053732;28;20112;-75
2021/07/28 09:51:53;;;;;;;3.83;1.83;;;;;;;;;;5042437;28;20120;-75
2021/07/28 09:54:18;;;;;;;2.42;1.85;;;;;;;;;;5037116;28;20275;-75
2021/07/28 09:56:44;;;;;;;8.37;6.40;;;;;;;;;;5042927;28;20363;-75
2021/07/28 09:59:09;;;;;;;5.22;1.90;;;;;;;;;;5043433;28;20852;-74
2021/07/28 10:01:35;;;;;;;2.40;1.90;;;;;;;;;;5041278;28;20414;-75
2021/07/28 10:04:05;;;;;;;3.88;1.77;;;;;;;;;;5043910;28;20597;-75
2021/07/28 10:06:38;;;;;;;6.18;1.90;;;;;;;;;;5052990;28;20078;-74
2021/07/28 10:09:09;;;;;;;3.50;2.22;;;;;;;;;;5053326;28;20415;-75
2021/07/28 10:11:37;;;;;;;2.08;1.88;;;;;;;;;;5052948;28;20036;-75
2021/07/28 10:14:05;;;;;;;3.78;2.05;;;;;;;;;;5053300;28;20064;-75
2021/07/28 10:16:34;;;;;;;4.53;2.00;;;;;;;;;;5035405;28;20021;-74
2021/07/28 10:19:02;;;;;;;6.25;2.22;;;;;;;;;;5053098;28;20024;-74
2021/07/28 10:21:27;;;;;;;4.55;2.25;;;;;;;;;;5053281;28;20020;-74
2021/07/28 10:23:54;;;;;;;2.67;1.92;;;;;;;;;;5052721;28;20052;-76
2021/07/28 10:26:19;;;;;;;2.35;2.10;;;;;;;;;;5053079;28;20068;-76
2021/07/28 10:28:50;;;;;;;4.32;2.47;;;;;;;;;;5052900;28;20037;-74
2021/07/28 10:31:16;;;;;;;2.22;2.03;;;;;;;;;;5052189;28;20021;-74
2021/07/28 10:33:49;;;;;;;3.45;2.10;;;;;;;;;;5052342;28;20040;-74
2021/07/28 10:36:15;;;;;;;3.30;2.10;;;;;;;;;;5052850;28;20013;-74
2021/07/28 10:38:55;;;;;;;3.90;2.28;;;;;;;;;;5052778;28;20017;-73
2021/07/28 10:41:35;;;;;;;2.35;2.08;;;;;;;;;;5047782;28;20032;-74
2021/07/28 10:44:07;;;;;;;3.97;2.10;;;;;;;;;;5050248;28;20021;-74
2021/07/28 10:47:05;;;;;;;2.88;2.00;;;;;;;;;;5052838;28;20446;-74
2021/07/28 10:49:33;;;;;;;2.80;2.03;;;;;;;;;;4997615;28;20041;-76
2021/07/28 10:51:58;;;;;;;2.50;2.28;;;;;;;;;;5051196;28;20487;-74
2021/07/28 10:54:42;;;;;;;5.35;3.42;;;;;;;;;;5050519;28;20033;-76
2021/07/28 10:57:08;;;;;;;5.40;2.45;;;;;;;;;;5050815;28;20029;-74
2021/07/28 10:59:42;;;;;;;3.47;1.83;;;;;;;;;;5051356;28;20032;-74
2021/07/28 11:02:09;;;;;;;2.70;2.00;;;;;;;;;;5051070;28;20032;-75
2021/07/28 11:04:34;;;;;;;3.15;2.08;;;;;;;;;;5051970;28;20066;-74
2021/07/28 11:07:00;;;;;;;5.43;2.10;;;;;;;;;;5052103;28;20441;-74
2021/07/28 11:09:28;;;;;;;2.90;1.90;;;;;;;;;;5052593;28;20586;-75
2021/07/28 11:11:53;;;;;;;3.85;2.30;;;;;;;;;;5048821;28;20070;-75
2021/07/28 11:14:21;;;;;;;3.30;1.80;;;;;;;;;;5054542;28;20056;-75
2021/07/28 11:16:50;;;;;;;3.05;1.90;;;;;;;;;;5030081;28;20083;-78
2021/07/28 11:19:15;;;;;;;3.13;2.10;;;;;;;;;;5055380;28;20013;-75
2021/07/28 11:21:41;;;;;;;3.33;2.20;;;;;;;;;;5037324;28;20035;-75
2021/07/28 11:24:06;;;;;;;4.50;2.30;;;;;;;;;;5055893;28;20255;-77
2021/07/28 11:26:33;;;;;;;2.75;2.08;;;;;;;;;;5055142;28;20020;-77
2021/07/28 11:29:03;;;;;;;4.00;1.90;;;;;;;;;;5055405;28;20351;-77
2021/07/28 11:31:32;;;;;;;4.32;2.00;;;;;;;;;;5055154;28;20017;-77
2021/07/28 11:34:06;;;;;;;3.05;2.10;;;;;;;;;;5055680;28;20036;-77
2021/07/28 11:36:33;;;;;;;4.40;2.10;;;;;;;;;;5024393;28;20029;-77
2021/07/28 11:38:58;;;;;;;4.88;2.17;;;;;;;;;;5035852;28;20037;-77
2021/07/28 11:41:23;;;;;;;3.90;2.00;;;;;;;;;;5035790;28;20340;-77
2021/07/28 11:43:49;;;;;;;2.08;1.38;;;;;;;;;;5035677;28;20260;-80
2021/07/28 11:46:18;;;;;;;5.13;2.10;;;;;;;;;;5035879;28;20025;-83
2021/07/28 11:48:44;;;;;;;2.85;1.75;;;;;;;;;;5035708;28;20056;-80
2021/07/28 11:51:18;;;;;;;3.38;2.08;;;;;;;;;;5035712;28;20440;-78
2021/07/28 11:53:46;;;;;;;4.30;1.75;;;;;;;;;;5035182;28;20029;-77
2021/07/28 11:56:15;;;;;;;3.47;2.05;;;;;;;;;;5026775;28;20021;-78
2021/07/28 11:58:44;;;;;;;4.03;1.90;;;;;;;;;;5055154;28;20036;-84
2021/07/28 12:01:22;;;;;;;2.67;1.80;;;;;;;;;;5037894;28;20021;-86
2021/07/28 12:03:49;;;;;;;3.35;1.90;;;;;;;;;;5054829;28;20021;-89
2021/07/28 12:06:14;;;;;;;2.47;2.00;;;;;;;;;;5037836;28;20111;-90
2021/07/28 12:08:42;;;;;;;3.67;1.83;;;;;;;;;;5026903;28;20113;-89
2021/07/28 12:11:08;;;;;;;2.28;1.50;;;;;;;;;;5034152;28;20086;-87
2021/07/28 12:13:41;;;;;;;2.88;1.65;;;;;;;;;;5037371;28;20028;-89
2021/07/28 12:16:11;;;;;;;3.72;1.58;;;;;;;;;;5054144;28;20017;-90
2021/07/28 12:18:43;;;;;;;2.70;1.60;;;;;;;;;;5037663;28;20056;-84
2021/07/28 12:21:11;;;;;;;2.10;1.42;;;;;;;;;;5053211;28;20104;-84
2021/07/28 12:23:39;;;;;;;2.92;1.73;;;;;;;;;;5054777;28;20032;-84
2021/07/28 12:26:04;;;;;;;3.72;1.40;;;;;;;;;;5049098;28;20021;-84
2021/07/28 12:28:55;;;;;;;4.60;1.38;;;;;;;;;;5041288;28;20333;-83
2021/07/28 12:31:24;;;;;;;3.13;1.40;;;;;;;;;;5040551;28;20400;-83
2021/07/28 12:33:50;;;;;;;2.42;1.48;;;;;;;;;;5052671;28;20021;-81
2021/07/28 12:36:24;;;;;;;2.30;1.30;;;;;;;;;;5054777;28;20029;-82
2021/07/28 12:38:52;;;;;;;2.33;1.23;;;;;;;;;;5053740;28;20017;-83
2021/07/28 12:41:19;;;;;;;3.70;1.83;;;;;;;;;;5054768;28;20021;-81
2021/07/28 12:43:44;;;;;;;1.25;1.00;;;;;;;;;;5054003;28;20040;-82
2021/07/28 12:46:10;;;;;;;1.08;0.90;;;;;;;;;;5054313;28;20079;-76
2021/07/28 12:48:38;;;;;;;2.17;1.13;;;;;;;;;;5037154;28;20036;-79
2021/07/28 12:51:08;;;;;;;1.63;1.00;;;;;;;;;;5036196;28;20052;-79
2021/07/28 12:53:33;;;;;;;1.40;1.10;;;;;;;;;;5052968;28;20037;-83
2021/07/28 12:55:59;;;;;;;2.20;1.05;;;;;;;;;;5053385;28;20094;-84
2021/07/28 12:58:26;;;;;;;1.92;1.10;;;;;;;;;;5051322;28;20509;-85
2021/07/28 13:00:53;;;;;;;1.02;0.93;;;;;;;;;;5048669;28;20029;-77
2021/07/28 13:03:18;;;;;;;3.10;0.90;;;;;;;;;;5048553;28;20047;-77
2021/07/28 13:05:47;;;;;;;2.60;1.02;;;;;;;;;;5050495;28;20017;-79
2021/07/28 13:08:13;;;;;;;1.83;0.90;;;;;;;;;;5036842;28;20032;-77
2021/07/28 13:10:39;;;;;;;3.47;1.10;;;;;;;;;;5039030;28;20021;-77
2021/07/28 13:13:05;;;;;;;2.80;1.10;;;;;;;;;;5044629;28;20021;-77
2021/07/28 13:15:31;;;;;;;2.22;1.15;;;;;;;;;;5053131;28;20035;-77
2021/07/28 13:17:57;;;;;;;1.90;1.05;;;;;;;;;;5053235;28;20028;-77
2021/07/28 13:20:22;;;;;;;3.17;0.90;;;;;;;;;;5052228;28;20443;-77
2021/07/28 13:22:47;;;;;;;1.48;1.00;;;;;;;;;;5053835;28;20116;-77
2021/07/28 13:25:13;;;;;;;4.70;0.90;;;;;;;;;;5037996;28;20047;-77
2021/07/28 13:27:39;;;;;;;3.03;1.00;;;;;;;;;;5047658;28;20271;-77
2021/07/28 13:30:05;;;;;;;1.58;1.05;;;;;;;;;;5048679;28;20017;-77
2021/07/28 13:32:33;;;;;;;2.00;1.08;;;;;;;;;;5047169;28;20022;-77
2021/07/28 13:34:58;;;;;;;2.28;1.10;;;;;;;;;;5026061;28;20359;-78
2021/07/28 13:37:23;;;;;;;3.37;1.50;;;;;;;;;;5030379;28;20024;-80
2021/07/28 13:39:49;;;;;;;5.07;1.30;;;;;;;;;;5053107;28;20701;-81
2021/07/28 13:42:15;;;;;;;1.90;1.00;;;;;;;;;;5052354;28;20244;-80
2021/07/28 13:44:40;;;;;;;2.15;1.20;;;;;;;;;;5052949;28;20017;-79
2021/07/28 13:47:05;;;;;;;2.73;1.27;;;;;;;;;;5053305;28;20021;-80
2021/07/28 13:49:31;;;;;;;2.28;1.17;;;;;;;;;;5052451;28;20028;-79
2021/07/28 13:51:56;;;;;;;3.15;1.13;;;;;;;;;;5053171;28;20033;-83
2021/07/28 13:54:21;;;;;;;2.13;1.10;;;;;;;;;;5018490;28;20049;-76
2021/07/28 13:57:06;;;;;;;1.30;1.17;;;;;;;;;;5047918;28;20443;-79
2021/07/28 13:59:32;;;;;;;2.77;1.37;;;;;;;;;;5052640;28;20097;-79
2021/07/28 14:01:57;;;;;;;5.40;1.40;;;;;;;;;;5019797;28;20527;-79
2021/07/28 14:04:22;;;;;;;2.90;1.60;;;;;;;;;;5033483;28;20060;-80
2021/07/28 14:06:47;;;;;;;2.50;1.50;;;;;;;;;;5033087;28;20071;-75
2021/07/28 14:09:12;;;;;;;5.00;1.40;;;;;;;;;;5064062;28;20059;-75
2021/07/28 14:11:37;;;;;;;1.73;1.27;;;;;;;;;;5052684;28;20021;-80
2021/07/28 14:14:03;;;;;;;3.70;1.30;;;;;;;;;;5052775;28;20020;-76
2021/07/28 14:16:28;;;;;;;4.80;1.47;;;;;;;;;;5051848;28;20332;-78
2021/07/28 14:18:53;;;;;;;3.20;1.30;;;;;;;;;;5034372;28;20029;-87
2021/07/28 14:21:21;;;;;;;1.83;1.30;;;;;;;;;;5052512;28;20263;-88
2021/07/28 14:23:46;;;;;;;2.40;1.45;;;;;;;;;;5052132;28;20035;-88
2021/07/28 14:26:11;;;;;;;5.30;1.50;;;;;;;;;;5052959;28;20107;-88
2021/07/28 14:28:36;;;;;;;5.13;1.40;;;;;;;;;;5052558;28;20060;-86
2021/07/28 14:31:01;;;;;;;3.03;1.10;;;;;;;;;;5054132;28;20446;-89
2021/07/28 14:33:27;;;;;;;2.70;1.20;;;;;;;;;;5053567;28;20104;-87
2021/07/28 14:35:54;;;;;;;1.47;1.10;;;;;;;;;;5053575;28;20017;-90
2021/07/28 14:38:19;;;;;;;2.75;0.80;;;;;;;;;;5053166;28;20717;-85
2021/07/28 14:40:49;;;;;;;3.60;1.20;;;;;;;;;;5053003;28;20036;-84
2021/07/28 14:43:14;;;;;;;2.00;1.20;;;;;;;;;;5035591;28;20496;-81